createdAt,value
2018-12-17T00:02:29.896Z,84.35
2018-12-17T00:08:33.257Z,84.10
2018-12-17T00:14:36.578Z,83.43
2018-12-17T00:20:40.052Z,83.90
2018-12-17T00:26:43.401Z,84.64
2018-12-17T00:32:46.759Z,84.25
2018-12-17T00:38:50.107Z,84.77
2018-12-17T00:44:53.512Z,85.14
2018-12-17T00:50:56.875Z,85.48
2018-12-17T00:57:00.256Z,84.82
2018-12-17T01:03:03.700Z,84.53
2018-12-17T01:09:07.043Z,85.26
2018-12-17T01:15:10.374Z,85.12
2018-12-17T01:21:13.740Z,85.70
2018-12-17T01:27:17.066Z,85.56
2018-12-17T01:33:21.019Z,86.24
2018-12-17T01:39:24.469Z,85.74
2018-12-17T01:45:27.797Z,86.12
2018-12-17T01:51:31.119Z,87.16
2018-12-17T01:57:34.455Z,87.09
2018-12-17T02:03:37.802Z,86.82
2018-12-17T02:09:41.141Z,86.67
2018-12-17T02:15:44.479Z,87.44
2018-12-17T02:21:47.814Z,87.25
2018-12-17T02:27:51.166Z,86.93
2018-12-17T02:33:54.498Z,87.19
2018-12-17T02:39:57.844Z,87.50
2018-12-17T02:46:01.196Z,87.93
2018-12-17T02:52:04.532Z,87.03
2018-12-17T02:58:07.859Z,87.81
2018-12-17T03:04:11.194Z,87.16
2018-12-17T03:10:14.534Z,86.86
2018-12-17T03:16:17.857Z,87.15
2018-12-17T03:22:21.271Z,87.43
2018-12-17T03:28:24.614Z,86.76
2018-12-17T03:34:27.939Z,86.83
2018-12-17T03:40:31.270Z,86.56
2018-12-17T03:46:34.613Z,86.85
2018-12-17T03:52:37.946Z,87.28
2018-12-17T03:58:41.291Z,86.74
2018-12-17T04:04:44.799Z,87.39
2018-12-17T04:10:48.221Z,86.78
2018-12-17T04:16:51.559Z,87.33
2018-12-17T04:22:54.877Z,87.16
2018-12-17T04:28:58.206Z,87.45
2018-12-17T04:35:01.535Z,87.49
2018-12-17T04:41:04.945Z,87.06
2018-12-17T04:47:08.269Z,87.12
2018-12-17T04:53:11.599Z,87.24
2018-12-17T04:59:15.022Z,87.48
2018-12-17T05:05:18.706Z,87.26
2018-12-17T05:11:22.025Z,86.68
2018-12-17T05:17:25.356Z,86.75
2018-12-17T05:23:28.675Z,87.21
2018-12-17T05:29:32.121Z,87.39
2018-12-17T05:35:35.463Z,87.19
2018-12-17T05:41:38.799Z,88.02
2018-12-17T05:47:42.139Z,87.82
2018-12-17T05:53:45.472Z,87.61
2018-12-17T05:59:48.878Z,87.83
2018-12-17T06:05:52.229Z,87.60
2018-12-17T06:11:55.869Z,88.02
2018-12-17T06:17:59.214Z,87.82
2018-12-17T06:24:02.633Z,88.10
2018-12-17T06:30:06.212Z,88.22
2018-12-17T06:36:09.563Z,88.12
2018-12-17T06:42:12.896Z,88.55
2018-12-17T06:48:17.296Z,87.70
2018-12-17T06:54:21.892Z,87.88
2018-12-17T07:00:25.247Z,87.71
2018-12-17T07:06:28.616Z,87.63
2018-12-17T07:12:32.039Z,88.42
2018-12-17T07:18:35.389Z,88.37
2018-12-17T07:24:38.721Z,88.49
2018-12-17T07:30:42.061Z,88.57
2018-12-17T07:36:45.409Z,88.26
2018-12-17T07:42:48.772Z,88.09
2018-12-17T07:48:52.122Z,88.14
2018-12-17T07:54:55.473Z,88.00
2018-12-17T08:00:58.841Z,88.19
2018-12-17T08:07:02.183Z,89.15
2018-12-17T08:13:05.899Z,88.78
2018-12-17T08:19:09.262Z,88.35
2018-12-17T08:25:12.588Z,87.78
2018-12-17T08:31:15.932Z,87.81
2018-12-17T08:37:19.362Z,87.97
2018-12-17T08:43:22.692Z,87.57
2018-12-17T08:49:26.024Z,87.49
2018-12-17T08:55:29.342Z,86.96
2018-12-17T09:01:32.794Z,86.99
2018-12-17T09:07:36.138Z,86.96
2018-12-17T09:13:39.604Z,87.04
2018-12-17T09:19:43.009Z,86.97
2018-12-17T09:25:46.350Z,88.71
2018-12-17T09:31:49.711Z,88.15
2018-12-17T09:37:53.047Z,87.67
2018-12-17T09:43:56.383Z,87.03
2018-12-17T09:49:59.705Z,86.88
2018-12-17T09:56:03.031Z,86.24
2018-12-17T10:02:06.363Z,85.05
2018-12-17T10:08:09.696Z,85.48
2018-12-17T10:14:13.013Z,84.38
2018-12-17T10:20:16.343Z,84.17
2018-12-17T10:26:19.773Z,84.16
2018-12-17T10:32:23.129Z,83.85
2018-12-17T10:38:26.466Z,83.86
2018-12-17T10:44:29.805Z,83.60
2018-12-17T10:50:33.135Z,82.78
2018-12-17T10:56:36.477Z,81.83
2018-12-17T11:02:39.818Z,82.00
2018-12-17T11:08:43.163Z,82.11
2018-12-17T11:14:46.501Z,82.32
2018-12-17T11:20:49.962Z,81.88
2018-12-17T11:26:53.301Z,82.29
2018-12-17T11:32:56.629Z,83.14
2018-12-17T11:38:59.973Z,82.26
2018-12-17T11:45:03.394Z,82.46
2018-12-17T11:51:06.718Z,83.02
2018-12-17T11:57:19.643Z,83.58
2018-12-17T12:03:23.267Z,83.79
2018-12-17T12:09:26.591Z,83.72
2018-12-17T12:15:30.003Z,83.23
2018-12-17T12:21:33.415Z,83.82
2018-12-17T12:27:36.746Z,83.70
2018-12-17T12:33:40.159Z,84.54
2018-12-17T12:39:43.500Z,84.60
2018-12-17T12:45:46.924Z,84.75
2018-12-17T12:51:50.872Z,84.09
2018-12-17T12:57:54.191Z,83.07
2018-12-17T13:03:57.519Z,83.62
2018-12-17T13:10:00.852Z,84.11
2018-12-17T13:16:04.206Z,84.21
2018-12-17T13:22:07.552Z,85.02
2018-12-17T13:28:10.884Z,85.60
2018-12-17T13:34:14.225Z,85.85
2018-12-17T13:40:17.572Z,85.67
2018-12-17T13:46:21.002Z,86.25
2018-12-17T13:52:30.010Z,86.17
2018-12-17T13:58:33.338Z,86.76
2018-12-17T14:04:36.695Z,87.07
2018-12-17T14:10:45.465Z,85.54
2018-12-17T14:16:54.349Z,86.49
2018-12-17T14:22:57.691Z,86.53
2018-12-17T14:29:01.034Z,87.20
2018-12-17T14:35:04.821Z,87.53
2018-12-17T14:41:08.195Z,87.71
2018-12-17T14:47:11.543Z,87.72
2018-12-17T14:53:14.907Z,87.78
2018-12-17T14:59:18.276Z,87.78
2018-12-17T15:05:21.605Z,87.97
2018-12-17T15:11:24.949Z,87.95
2018-12-17T15:17:28.274Z,88.19
2018-12-17T15:23:31.650Z,87.98
2018-12-17T15:29:35.017Z,88.57
2018-12-17T15:35:38.467Z,88.94
2018-12-17T15:41:41.796Z,89.32
2018-12-17T15:47:45.242Z,89.38
2018-12-17T15:53:48.809Z,89.57
2018-12-17T15:59:52.176Z,89.67
2018-12-17T16:05:55.496Z,89.38
2018-12-17T16:11:58.822Z,89.14
2018-12-17T16:18:02.212Z,89.18
2018-12-17T16:24:05.623Z,88.48
2018-12-17T16:30:10.125Z,88.86
2018-12-17T16:36:13.489Z,89.30
2018-12-17T16:42:16.833Z,89.33
2018-12-17T16:48:20.184Z,89.74
2018-12-17T16:54:23.548Z,89.20
2018-12-17T17:00:26.875Z,89.25
2018-12-17T17:06:30.211Z,90.13
2018-12-17T17:12:33.626Z,90.66
2018-12-17T17:18:36.982Z,90.52
2018-12-17T17:24:40.355Z,90.31
2018-12-17T17:30:43.688Z,89.44
2018-12-17T17:36:47.021Z,89.61
2018-12-17T17:42:50.378Z,89.38
2018-12-17T17:48:53.727Z,88.65
2018-12-17T17:54:57.047Z,87.92
2018-12-17T18:01:00.453Z,88.69
2018-12-17T18:07:03.790Z,88.94
2018-12-17T18:13:07.146Z,88.75
2018-12-17T18:19:10.483Z,88.32
2018-12-17T18:25:13.840Z,88.67
2018-12-17T18:31:17.198Z,88.42
2018-12-17T18:37:21.199Z,88.72
2018-12-17T18:43:24.569Z,88.76
2018-12-17T18:49:27.908Z,88.79
2018-12-17T18:55:31.260Z,88.75
2018-12-17T19:01:34.600Z,88.87
2018-12-17T19:07:37.941Z,88.65
2018-12-17T19:13:41.271Z,88.65
2018-12-17T19:19:44.618Z,88.68
2018-12-17T19:25:47.985Z,88.81
2018-12-17T19:31:51.903Z,88.51
2018-12-17T19:37:55.309Z,88.48
2018-12-17T19:43:58.644Z,89.49
2018-12-17T19:50:01.981Z,89.18
2018-12-17T19:56:05.424Z,89.21
2018-12-17T20:02:08.797Z,89.40
2018-12-17T20:08:12.136Z,89.43
2018-12-17T20:14:15.469Z,90.52
2018-12-17T20:20:18.808Z,90.60
2018-12-17T20:26:22.143Z,91.26
2018-12-17T20:32:25.618Z,91.68
2018-12-17T20:38:28.949Z,91.25
2018-12-17T20:44:32.290Z,91.08
2018-12-17T20:50:35.630Z,91.09
2018-12-17T20:56:38.972Z,91.31
2018-12-17T21:02:42.316Z,90.49
2018-12-17T21:08:45.665Z,90.68
2018-12-17T21:14:50.947Z,90.71
2018-12-17T21:20:54.276Z,90.43
2018-12-17T21:26:57.626Z,90.34
2018-12-17T21:33:06.601Z,90.53
2018-12-17T21:39:07.101Z,90.22
2018-12-17T21:45:10.443Z,90.93
2018-12-17T21:51:13.805Z,90.37
2018-12-17T21:57:17.147Z,90.60
2018-12-17T22:03:21.092Z,90.81
2018-12-17T22:09:24.408Z,91.26
2018-12-17T22:15:27.763Z,91.64
2018-12-17T22:21:31.114Z,92.00
2018-12-17T22:27:34.445Z,91.36
2018-12-17T22:33:37.775Z,90.95
2018-12-17T22:39:41.126Z,90.64
2018-12-17T22:45:44.672Z,91.03
2018-12-17T22:51:48.017Z,91.02
2018-12-17T22:57:51.377Z,91.50
2018-12-17T23:03:54.698Z,90.63
2018-12-17T23:10:15.998Z,90.57
2018-12-17T23:16:37.258Z,90.79
2018-12-17T23:22:42.670Z,90.87
2018-12-17T23:28:46.976Z,91.17
2018-12-17T23:34:51.167Z,90.05
2018-12-17T23:40:54.505Z,91.16
2018-12-17T23:46:57.936Z,91.01
2018-12-17T23:53:01.276Z,90.61
2018-12-17T23:59:04.680Z,90.99
